Terminal Aerodrome Forecast
Issued by NWS Boston, MA

Home | Current Version | Previous Version | Text Only | Print | Product List | Glossary On
Versions: 1 2 3 4 5 6 7 8 9 10 11 12 13 14 15 16 17 18 19 20 21 22 23 24 25 26 27 28 29 30 31 32 33 34 35 36 37 38 39 40 41 42 43 44 45 46 47 48 49 50
000
FTUS41 KBOX 301729
TAFPVD
TAF
KPVD 301729Z 3018/0118 05013G27KT P6SM -RA OVC025
     FM302000 06013G27KT 4SM -RA OVC015
     FM010900 04013G20KT 6SM -SHRA BR OVC015
     FM011300 03012G19KT 6SM BR VCSH OVC008
     FM011700 03008KT 6SM BR VCSH OVC010=

USA.gov is the U.S. government's official web portal to all federal, state and local government web resources and services.